Time;durP1;ratioP1;P1;durP2;ratioP2;P2;SDS_P1;SDS_P2;PMS_P1;PMS_P2;Temp;Humidity;BMP_temperature;BMP_pressure;BME280_temperature;BME280_humidity;BME280_pressure;Samples;Min_cycle;Max_cycle;Signal;HPM_P1;HPM_P2
2022/09/12 00:01:12;;;;;;;9.05;8.25;;;;;;;12.07;100.00;101172.84;6026203;23;20022;-75
2022/09/12 00:03:39;;;;;;;7.57;6.97;;;;;;;12.00;100.00;101162.69;6060468;23;20030;-74
2022/09/12 00:06:11;;;;;;;7.72;7.22;;;;;;;12.00;100.00;101165.31;6051781;23;20085;-73
2022/09/12 00:08:38;;;;;;;8.98;6.57;;;;;;;11.70;100.00;101114.16;6043125;23;20038;-75
2022/09/12 00:11:08;;;;;;;10.07;9.18;;;;;;;12.16;100.00;101187.28;6059906;23;20034;-74
2022/09/12 00:13:36;;;;;;;8.30;7.60;;;;;;;11.90;100.00;101160.53;6057560;23;20887;-75
2022/09/12 00:16:13;;;;;;;10.95;9.27;;;;;;;11.55;100.00;101086.88;6074864;23;20022;-75
2022/09/12 00:18:40;;;;;;;8.13;7.43;;;;;;;12.00;100.00;101166.16;6046190;23;20014;-75
2022/09/12 00:21:07;;;;;;;9.32;8.55;;;;;;;11.97;100.00;101161.09;6057017;23;20026;-74
2022/09/12 00:23:33;;;;;;;8.63;7.53;;;;;;;10.40;100.00;100899.97;6065282;23;20109;-73
2022/09/12 00:26:05;;;;;;;9.13;8.23;;;;;;;10.28;100.00;100883.84;6058391;23;20056;-74
2022/09/12 00:28:34;;;;;;;8.90;8.10;;;;;;;12.08;100.00;101184.19;6031716;23;20027;-75
2022/09/12 00:31:07;;;;;;;11.07;7.55;;;;;;;12.05;100.00;101185.22;6056804;23;20040;-73
2022/09/12 00:33:34;;;;;;;9.27;8.43;;;;;;;11.84;100.00;101144.16;6048872;23;20097;-74
2022/09/12 00:36:07;;;;;;;9.65;7.65;;;;;;;12.03;100.00;101187.06;6056515;23;20034;-74
2022/09/12 00:38:37;;;;;;;8.98;7.35;;;;;;;11.66;100.00;101119.66;6057075;23;20998;-74
2022/09/12 00:41:04;;;;;;;7.65;7.13;;;;;;;11.01;100.00;101028.25;6048715;23;20018;-74
2022/09/12 00:43:43;;;;;;;9.65;8.82;;;;;;;10.80;100.00;101027.47;6065785;23;20032;-75
2022/09/12 00:46:27;;;;;;;9.88;9.07;;;;;;;11.97;100.00;101180.34;6039394;23;20018;-74
2022/09/12 00:48:59;;;;;;;11.00;8.32;;;;;;;12.00;100.00;101171.44;6059418;23;20026;-75
2022/09/12 00:51:30;;;;;;;13.02;10.68;;;;;;;12.07;100.00;101167.56;6040709;23;20740;-76
2022/09/12 00:53:59;;;;;;;11.57;9.18;;;;;;;11.15;100.00;101010.03;6007114;23;20026;-74
2022/09/12 00:56:26;;;;;;;12.10;10.88;;;;;;;11.96;100.00;101138.31;6047945;23;20436;-73
2022/09/12 00:58:59;;;;;;;11.85;9.85;;;;;;;12.23;100.00;101188.69;6057896;23;20120;-73
2022/09/12 01:01:26;;;;;;;15.07;10.23;;;;;;;10.97;100.00;100929.53;6030915;23;20046;-76
2022/09/12 01:03:58;;;;;;;12.45;9.13;;;;;;;10.95;100.00;100928.75;6011814;23;20533;-73
2022/09/12 01:06:29;;;;;;;16.92;9.52;;;;;;;11.16;100.00;100985.47;6049841;23;20030;-73
2022/09/12 01:08:56;;;;;;;9.05;8.15;;;;;;;12.28;100.00;101139.28;6055844;23;20467;-75
2022/09/12 01:11:22;;;;;;;10.68;9.48;;;;;;;12.14;100.00;101128.63;6054556;23;20033;-73
2022/09/12 01:13:50;;;;;;;10.40;9.45;;;;;;;11.86;100.00;101082.66;6055153;23;20029;-74
2022/09/12 01:16:17;;;;;;;11.32;9.85;;;;;;;11.73;100.00;101064.06;6052668;23;20023;-75
2022/09/12 01:19:18;;;;;;;9.48;8.57;;;;;;;12.10;100.00;101130.56;6070708;23;20089;-76
2022/09/12 01:21:55;;;;;;;9.40;8.38;;;;;;;12.03;100.00;101133.59;6035334;23;20011;-75
2022/09/12 01:24:46;;;;;;;9.23;8.43;;;;;;;11.68;100.00;101089.72;6041884;23;20034;-75
2022/09/12 01:27:30;;;;;;;13.45;9.60;;;;;;;12.03;100.00;101142.34;6022025;23;21070;-74
2022/09/12 01:30:22;;;;;;;10.98;8.70;;;;;;;11.96;100.00;101133.91;6018479;23;20110;-72
2022/09/12 01:32:58;;;;;;;9.00;8.07;;;;;;;10.51;100.00;100908.16;6055168;23;20639;-74
2022/09/12 01:35:43;;;;;;;10.68;8.65;;;;;;;11.90;100.00;101139.47;6046801;23;20021;-74
2022/09/12 01:38:25;;;;;;;11.50;10.35;;;;;;;10.39;100.00;100888.63;6053638;23;20075;-72
2022/09/12 01:41:18;;;;;;;12.07;9.70;;;;;;;11.92;100.00;101140.25;6059969;23;20105;-73
2022/09/12 01:44:00;;;;;;;12.60;10.02;;;;;;;11.90;100.00;101126.31;6025357;23;20080;-72
2022/09/12 01:46:34;;;;;;;10.45;9.48;;;;;;;11.92;100.00;101126.25;6036948;23;20006;-75
2022/09/12 01:49:07;;;;;;;17.70;9.30;;;;;;;11.97;100.00;101130.34;6043417;23;20022;-74
2022/09/12 01:51:40;;;;;;;10.45;9.38;;;;;;;11.05;100.00;100979.88;6066106;23;20077;-74
2022/09/12 01:54:12;;;;;;;12.05;11.00;;;;;;;10.58;100.00;100914.81;6045884;23;20098;-75
2022/09/12 01:56:42;;;;;;;10.75;9.38;;;;;;;11.93;100.00;101122.72;6027883;23;20022;-73
2022/09/12 01:59:20;;;;;;;16.20;11.60;;;;;;;11.94;100.00;101119.97;6046913;23;20030;-72
2022/09/12 02:01:54;;;;;;;13.10;10.55;;;;;;;10.37;100.00;100853.75;6042648;23;20047;-74
2022/09/12 02:04:27;;;;;;;10.02;9.00;;;;;;;10.74;100.00;100914.91;6048131;23;20034;-73
2022/09/12 02:07:18;;;;;;;9.43;8.52;;;;;;;12.01;100.00;101123.16;6051798;23;20121;-74
2022/09/12 02:10:01;;;;;;;13.48;11.05;;;;;;;10.43;100.00;100873.59;6030903;23;20039;-74
2022/09/12 02:12:41;;;;;;;11.90;10.07;;;;;;;10.67;100.00;100885.50;6067886;23;20140;-75
2022/09/12 02:15:09;;;;;;;9.65;8.68;;;;;;;12.02;100.00;101102.97;6045110;23;20487;-74
2022/09/12 02:17:39;;;;;;;13.25;9.18;;;;;;;10.62;100.00;100899.75;6034528;23;20019;-74
2022/09/12 02:20:18;;;;;;;10.38;9.43;;;;;;;11.78;100.00;101085.69;6057739;23;20100;-76
2022/09/12 02:23:15;;;;;;;10.27;9.32;;;;;;;11.88;100.00;101101.00;6060069;23;20090;-74
2022/09/12 02:25:45;;;;;;;10.95;9.82;;;;;;;11.89;100.00;101093.09;6005732;23;20030;-75
2022/09/12 02:28:20;;;;;;;11.43;10.25;;;;;;;11.75;100.00;101067.47;6032346;23;20030;-74
2022/09/12 02:31:05;;;;;;;11.20;10.15;;;;;;;11.88;100.00;101096.59;5970488;23;20503;-75
2022/09/12 02:34:00;;;;;;;14.60;9.20;;;;;;;11.87;100.00;101099.31;6029395;23;20045;-74
2022/09/12 02:36:45;;;;;;;11.77;9.68;;;;;;;10.83;100.00;100911.84;5994991;23;20027;-75
2022/09/12 02:39:11;;;;;;;11.18;10.23;;;;;;;11.78;100.00;101056.75;6002723;23;20073;-73
2022/09/12 02:41:38;;;;;;;12.43;10.07;;;;;;;11.37;100.00;100998.44;6007208;23;20019;-76
2022/09/12 02:44:05;;;;;;;14.25;11.30;;;;;;;11.89;100.00;101116.75;6002972;23;20085;-75
2022/09/12 02:46:40;;;;;;;13.43;10.57;;;;;;;11.40;100.00;101011.41;6002140;23;20078;-73
2022/09/12 02:49:06;;;;;;;12.63;10.25;;;;;;;11.59;100.00;101056.03;6026330;23;20015;-75
2022/09/12 02:51:36;;;;;;;10.20;9.25;;;;;;;11.00;100.00;100967.91;6032385;23;20045;-75
2022/09/12 02:54:05;;;;;;;18.40;16.60;;;;;;;11.09;100.00;100947.28;5956637;23;20444;-76
2022/09/12 02:56:41;;;;;;;13.20;9.13;;;;;;;11.92;100.00;101079.75;6011319;23;20030;-73
2022/09/12 02:59:12;;;;;;;12.85;10.27;;;;;;;11.92;100.00;101071.88;6014323;23;20081;-76
2022/09/12 03:02:08;;;;;;;15.73;9.98;;;;;;;10.53;100.00;100843.34;5993172;23;20022;-73
2022/09/12 03:04:48;;;;;;;12.57;9.35;;;;;;;11.88;100.00;101072.94;6021728;23;20030;-74
2022/09/12 03:07:30;;;;;;;30.58;14.18;;;;;;;11.76;100.00;101052.53;6017583;23;20038;-73
2022/09/12 03:10:22;;;;;;;10.50;9.43;;;;;;;10.32;100.00;100822.50;6031444;23;20659;-73
2022/09/12 03:13:05;;;;;;;9.43;8.73;;;;;;;11.78;100.00;101067.28;6025791;23;20010;-74
2022/09/12 03:15:31;;;;;;;8.68;7.97;;;;;;;11.83;100.00;101063.59;6025050;23;20026;-74
2022/09/12 03:18:05;;;;;;;13.18;10.63;;;;;;;11.86;100.00;101061.63;6021583;23;20035;-75
2022/09/12 03:20:52;;;;;;;13.35;10.38;;;;;;;11.88;100.00;101061.56;5992655;23;20027;-73
2022/09/12 03:23:32;;;;;;;9.43;8.73;;;;;;;11.85;100.00;101057.31;6002421;23;20719;-73
2022/09/12 03:26:11;;;;;;;8.10;7.50;;;;;;;11.11;100.00;100947.22;6011049;23;20034;-74
2022/09/12 03:28:42;;;;;;;12.20;11.00;;;;;;;11.75;100.00;101058.72;6020948;23;20026;-74
2022/09/12 03:31:14;;;;;;;12.02;10.98;;;;;;;11.53;100.00;101030.91;6053983;23;20016;-75
2022/09/12 03:33:41;;;;;;;10.37;7.60;;;;;;;11.32;100.00;101010.94;6059129;23;20388;-73
2022/09/12 03:36:20;;;;;;;10.43;9.43;;;;;;;11.72;100.00;101066.75;6025456;23;20365;-73
2022/09/12 03:38:46;;;;;;;8.43;7.70;;;;;;;11.58;100.00;101041.16;6045116;23;20084;-73
2022/09/12 03:41:13;;;;;;;8.57;8.00;;;;;;;11.66;100.00;101067.06;6050092;23;20010;-72
2022/09/12 03:43:39;;;;;;;10.50;9.40;;;;;;;11.26;100.00;101004.22;6055421;23;20018;-72
2022/09/12 03:46:06;;;;;;;9.55;8.40;;;;;;;11.23;100.00;100995.66;6053231;23;20029;-74
2022/09/12 03:48:33;;;;;;;10.40;9.60;;;;;;;11.66;100.00;101067.06;6029314;23;20641;-72
2022/09/12 03:51:02;;;;;;;11.02;9.77;;;;;;;11.42;100.00;101030.56;6055617;23;20022;-73
2022/09/12 03:53:29;;;;;;;9.48;8.68;;;;;;;11.63;100.00;101067.25;6042645;23;20681;-72
2022/09/12 03:55:57;;;;;;;8.98;8.20;;;;;;;10.47;100.00;100875.97;6052996;23;20018;-73
2022/09/12 03:58:24;;;;;;;8.27;7.40;;;;;;;11.64;100.00;101064.50;6029765;23;20019;-75
2022/09/12 04:00:51;;;;;;;9.38;8.48;;;;;;;11.36;100.00;101020.38;6043184;23;20114;-74
2022/09/12 04:03:18;;;;;;;13.10;10.23;;;;;;;11.47;100.00;101025.94;6022641;23;20033;-75
2022/09/12 04:05:45;;;;;;;8.98;8.07;;;;;;;10.88;100.00;100927.34;6043340;23;20023;-74
2022/09/12 04:08:12;;;;;;;9.25;8.50;;;;;;;11.42;100.00;101009.56;6050246;23;20026;-73
2022/09/12 04:10:40;;;;;;;9.00;8.05;;;;;;;11.42;100.00;101017.44;6028544;23;20474;-75
2022/09/12 04:13:06;;;;;;;9.68;8.73;;;;;;;10.11;100.00;100795.50;6004620;23;20069;-75
2022/09/12 04:15:33;;;;;;;9.57;8.68;;;;;;;10.52;100.00;100878.38;6059679;23;20037;-75
2022/09/12 04:17:59;;;;;;;9.82;8.43;;;;;;;10.70;100.00;100898.44;6050326;23;20034;-76
2022/09/12 04:20:31;;;;;;;10.93;7.90;;;;;;;11.24;100.00;101023.63;6048190;23;20127;-74
2022/09/12 04:22:57;;;;;;;8.57;7.78;;;;;;;11.30;100.00;101005.75;6049113;23;20093;-75
2022/09/12 04:25:24;;;;;;;9.13;7.88;;;;;;;11.54;100.00;101048.34;6047792;23;20034;-74
2022/09/12 04:27:50;;;;;;;9.20;8.30;;;;;;;11.44;100.00;101035.75;6044293;23;20022;-73
2022/09/12 04:30:17;;;;;;;9.07;8.30;;;;;;;9.76;100.00;100752.63;6000307;23;20031;-74
2022/09/12 04:32:44;;;;;;;7.60;7.00;;;;;;;11.48;100.00;101042.56;6011910;23;20280;-74
2022/09/12 04:35:11;;;;;;;10.50;9.40;;;;;;;11.45;100.00;101038.31;5996276;23;20031;-74
2022/09/12 04:37:38;;;;;;;9.25;8.32;;;;;;;11.26;100.00;101016.50;6020377;23;20081;-75
2022/09/12 04:40:04;;;;;;;9.00;8.30;;;;;;;11.36;100.00;101044.88;6012007;23;20039;-75
2022/09/12 04:42:31;;;;;;;11.75;8.15;;;;;;;11.20;100.00;101029.97;6027205;23;20029;-73
2022/09/12 04:44:57;;;;;;;7.22;6.72;;;;;;;11.28;100.00;101048.81;6024812;23;20069;-74
2022/09/12 04:47:24;;;;;;;9.93;9.02;;;;;;;11.18;100.00;101025.66;6006246;23;20906;-75
2022/09/12 04:49:51;;;;;;;10.63;7.90;;;;;;;10.52;100.00;100915.09;6027673;23;20011;-73
2022/09/12 04:52:17;;;;;;;10.88;8.95;;;;;;;11.26;100.00;101037.53;6010142;23;20035;-74
2022/09/12 04:54:44;;;;;;;9.82;8.77;;;;;;;11.27;100.00;101034.00;6030744;23;20553;-74
2022/09/12 04:57:10;;;;;;;9.25;8.48;;;;;;;9.49;100.00;100739.91;6029015;23;20021;-75
2022/09/12 04:59:37;;;;;;;9.63;8.85;;;;;;;10.98;100.00;100974.09;6016213;23;20880;-74
2022/09/12 05:02:07;;;;;;;9.90;8.95;;;;;;;11.14;100.00;100989.91;6032756;23;20023;-74
2022/09/12 05:04:34;;;;;;;8.82;7.82;;;;;;;11.35;100.00;101013.44;6026230;23;20037;-74
2022/09/12 05:07:01;;;;;;;8.25;7.45;;;;;;;11.04;100.00;100983.44;5995329;23;20665;-72
2022/09/12 05:09:28;;;;;;;9.20;8.43;;;;;;;10.37;100.00;100853.75;6002850;23;20090;-69
2022/09/12 05:11:54;;;;;;;6.93;6.32;;;;;;;11.17;100.00;100979.28;6028624;23;20033;-69
2022/09/12 05:14:31;;;;;;;9.50;8.30;;;;;;;11.20;100.00;100974.78;6021811;23;20030;-72
2022/09/12 05:17:00;;;;;;;8.48;7.82;;;;;;;10.51;100.00;100860.94;5991164;23;20043;-70
2022/09/12 05:19:28;;;;;;;8.55;7.85;;;;;;;11.54;100.00;101011.56;6028086;23;20023;-71
2022/09/12 05:21:55;;;;;;;8.45;7.68;;;;;;;11.62;100.00;101015.56;6024094;23;20069;-70
2022/09/12 05:24:21;;;;;;;9.88;8.98;;;;;;;11.68;100.00;101033.66;6000456;23;20161;-71
2022/09/12 05:26:48;;;;;;;8.82;8.15;;;;;;;11.70;100.00;101006.34;6023115;23;20011;-70
2022/09/12 05:29:14;;;;;;;11.48;10.40;;;;;;;11.83;100.00;101016.25;6016871;23;20063;-72
2022/09/12 05:31:41;;;;;;;7.30;6.68;;;;;;;10.90;100.00;100847.56;5993612;23;20031;-70
2022/09/12 05:34:08;;;;;;;10.60;9.27;;;;;;;12.03;100.00;101023.09;6019165;23;20095;-70
2022/09/12 05:36:36;;;;;;;7.80;7.20;;;;;;;12.11;100.00;101016.53;6025624;23;20732;-70
2022/09/12 05:39:03;;;;;;;13.52;8.43;;;;;;;12.20;100.00;101011.69;6024949;23;20077;-70
2022/09/12 05:41:32;;;;;;;8.18;7.57;;;;;;;12.12;100.00;100988.44;6027506;23;20013;-70
2022/09/12 05:44:01;;;;;;;8.82;8.05;;;;;;;12.34;100.00;101001.25;6025481;23;20074;-70
2022/09/12 05:46:30;;;;;;;9.40;8.60;;;;;;;12.23;100.00;100988.72;6036025;23;20023;-70
2022/09/12 05:49:02;;;;;;;10.05;8.75;;;;;;;12.45;100.00;101014.69;6025097;23;20551;-71
2022/09/12 05:51:33;;;;;;;8.75;7.97;;;;;;;12.56;100.00;101016.72;6034399;23;20014;-70
2022/09/12 05:54:02;;;;;;;9.63;8.70;;;;;;;12.63;100.00;101017.22;5999748;23;20394;-70
2022/09/12 05:56:32;;;;;;;11.93;8.05;;;;;;;12.76;100.00;101021.72;5994272;23;20011;-70
2022/09/12 05:59:04;;;;;;;9.02;8.25;;;;;;;11.68;100.00;100860.16;5998269;23;20103;-70
2022/09/12 06:01:33;;;;;;;11.33;8.33;;;;;;;12.84;100.00;101026.56;6024622;23;20022;-70
2022/09/12 06:04:02;;;;;;;8.18;7.38;;;;;;;11.29;100.00;100778.13;6035642;23;20102;-71
2022/09/12 06:06:30;;;;;;;8.88;8.05;;;;;;;12.82;100.00;101011.78;6038726;23;20027;-70
2022/09/12 06:08:59;;;;;;;8.93;8.23;;;;;;;11.13;100.00;100715.06;6025328;23;20019;-71
2022/09/12 06:11:28;;;;;;;14.57;8.93;;;;;;;13.07;100.00;101029.66;6021816;23;20860;-71
2022/09/12 06:13:57;;;;;;;9.77;8.55;;;;;;;13.02;100.00;101018.56;6023547;23;20018;-70
2022/09/12 06:16:26;;;;;;;8.88;8.18;;;;;;;11.99;100.00;100848.84;5990356;23;20070;-70
2022/09/12 06:18:55;;;;;;;8.80;7.78;;;;;;;12.05;100.00;100859.03;6026078;23;20042;-70
2022/09/12 06:21:23;;;;;;;10.60;9.05;;;;;;;13.33;100.00;101036.97;5994012;23;20058;-70
2022/09/12 06:23:50;;;;;;;8.60;7.90;;;;;;;13.35;100.00;101026.34;6026020;23;20046;-70
2022/09/12 06:26:20;;;;;;;11.30;10.23;;;;;;;13.08;100.00;100963.72;6027408;23;20033;-71
2022/09/12 06:28:46;;;;;;;11.63;8.60;;;;;;;13.69;100.00;101034.88;6036201;23;20022;-70
2022/09/12 06:31:16;;;;;;;10.18;9.38;;;;;;;13.90;100.00;101033.59;6060242;23;20060;-70
2022/09/12 06:33:45;;;;;;;9.25;8.45;;;;;;;14.00;100.00;101039.16;6051613;23;20011;-70
2022/09/12 06:36:17;;;;;;;10.32;9.57;;;;;;;14.09;100.00;101021.91;6055172;23;20026;-70
2022/09/12 06:38:47;;;;;;;9.55;8.68;;;;;;;14.23;100.00;101050.06;6058474;23;20122;-71
2022/09/12 06:41:14;;;;;;;8.32;7.63;;;;;;;14.29;100.00;101058.50;6064511;23;20097;-70
2022/09/12 06:43:41;;;;;;;8.90;8.10;;;;;;;12.88;100.00;100788.38;6059676;23;20153;-72
2022/09/12 06:46:09;;;;;;;8.70;7.85;;;;;;;14.56;100.00;101041.88;6042531;23;20537;-70
2022/09/12 06:48:36;;;;;;;10.77;8.35;;;;;;;13.76;100.00;100891.13;6067454;23;20021;-70
2022/09/12 06:51:15;;;;;;;9.15;8.27;;;;;;;14.84;100.00;101035.66;6053696;23;20036;-70
2022/09/12 06:53:43;;;;;;;8.40;7.65;;;;;;;13.05;100.00;100745.22;6050617;23;20912;-71
2022/09/12 06:56:12;;;;;;;11.75;10.13;;;;;;;13.51;100.00;100852.25;6058164;23;20028;-71
2022/09/12 06:58:40;;;;;;;9.38;8.30;;;;;;;14.62;100.00;100990.47;6031024;23;20539;-70
2022/09/12 07:01:15;;;;;;;10.65;9.68;;;;;;;13.52;100.00;100799.41;6040124;23;20094;-70
2022/09/12 07:03:46;;;;;;;8.75;7.78;;;;;;;13.68;100.00;100828.31;6046385;23;20015;-70
2022/09/12 07:06:14;;;;;;;10.32;9.38;;;;;;;15.23;100.00;101041.94;6052353;23;20726;-70
2022/09/12 07:08:41;;;;;;;9.68;8.05;;;;;;;15.32;100.00;101033.41;5997802;23;20014;-71
2022/09/12 07:11:20;;;;;;;16.58;10.07;;;;;;;15.42;100.00;101036.28;6051589;23;20117;-70
2022/09/12 07:13:49;;;;;;;8.45;7.55;;;;;;;15.54;100.00;101038.09;6052035;23;20658;-70
2022/09/12 07:16:16;;;;;;;11.75;9.82;;;;;;;14.39;100.00;100828.19;6052942;23;20030;-70
2022/09/12 07:18:59;;;;;;;9.07;8.07;;;;;;;15.55;100.00;101042.44;6053021;23;20102;-70
2022/09/12 07:21:26;;;;;;;9.80;8.10;;;;;;;15.64;100.00;101040.13;6054964;23;20025;-70
2022/09/12 07:23:54;;;;;;;9.82;8.63;;;;;;;15.72;100.00;101043.09;6042043;23;20022;-70
2022/09/12 07:26:20;;;;;;;10.13;9.25;;;;;;;15.81;100.00;101047.75;6056972;23;20034;-71
2022/09/12 07:28:52;;;;;;;12.75;8.23;;;;;;;15.80;100.00;101037.31;6050776;23;20022;-71
2022/09/12 07:31:21;;;;;;;10.35;9.35;;;;;;;14.81;100.00;100860.63;6048279;23;20010;-70
2022/09/12 07:33:49;;;;;;;8.70;7.60;;;;;;;15.97;100.00;101047.56;6045786;23;20030;-71
2022/09/12 07:36:22;;;;;;;8.80;8.02;;;;;;;16.08;100.00;101049.47;6055703;23;20038;-71
2022/09/12 07:38:53;;;;;;;9.05;8.20;;;;;;;16.09;100.00;101020.22;6047881;23;20066;-70
2022/09/12 07:41:25;;;;;;;9.20;8.27;;;;;;;16.47;100.00;101039.66;6044515;23;20097;-70
2022/09/12 07:43:54;;;;;;;12.27;7.85;;;;;;;16.57;100.00;101047.78;6050167;23;20118;-70
2022/09/12 07:46:21;;;;;;;11.02;8.40;;;;;;;16.75;100.00;101041.16;6042852;23;20686;-70
2022/09/12 07:48:56;;;;;;;8.82;7.93;;;;;;;16.93;100.00;101041.66;6050928;23;20086;-72
2022/09/12 07:51:24;;;;;;;8.50;7.80;;;;;;;16.86;100.00;101027.19;6027797;23;20022;-69
2022/09/12 07:53:50;;;;;;;10.10;9.10;;;;;;;16.90;100.00;101023.34;6044400;23;20018;-70
2022/09/12 07:56:18;;;;;;;12.23;8.90;;;;;;;17.08;100.00;101029.94;6050060;23;20022;-70
2022/09/12 07:58:45;;;;;;;9.45;8.50;;;;;;;17.14;100.00;101013.56;6042430;23;20011;-70
2022/09/12 08:01:16;;;;;;;11.93;9.98;;;;;;;17.39;100.00;101032.91;6040846;23;20021;-70
2022/09/12 08:03:46;;;;;;;8.80;8.00;;;;;;;17.49;100.00;101041.88;6049320;23;20034;-69
2022/09/12 08:06:14;;;;;;;11.27;10.20;;;;;;;17.26;100.00;101019.75;6045493;23;20547;-70
2022/09/12 08:08:42;;;;;;;10.43;7.90;;;;;;;17.09;100.00;100996.28;6042246;23;20656;-70
2022/09/12 08:11:11;;;;;;;11.00;9.95;;;;;;;17.29;100.00;101035.41;6048630;23;20038;-70
2022/09/12 08:13:39;;;;;;;8.90;8.00;;;;;;;17.22;100.00;101014.75;6051957;23;20014;-71
2022/09/12 08:16:17;;;;;;;9.07;8.13;;;;;;;17.41;100.00;101040.78;6064363;23;20092;-71
2022/09/12 08:18:43;;;;;;;11.95;8.80;;;;;;;17.27;100.00;101016.13;6027565;23;20080;-71
2022/09/12 08:21:19;;;;;;;9.95;8.95;;;;;;;17.55;100.00;101049.34;6050781;23;20096;-71
2022/09/12 08:23:50;;;;;;;10.35;7.88;;;;;;;16.31;100.00;100843.91;6038799;23;20011;-71
2022/09/12 08:26:17;;;;;;;10.32;9.43;;;;;;;16.89;100.00;100916.44;6045899;23;20026;-71
2022/09/12 08:28:45;;;;;;;8.65;7.85;;;;;;;17.94;100.00;101049.97;6053350;23;20010;-70
2022/09/12 08:31:17;;;;;;;10.07;9.18;;;;;;;17.85;100.00;101023.28;6016940;23;20027;-68
2022/09/12 08:33:44;;;;;;;8.07;7.40;;;;;;;16.90;100.00;100885.50;6031568;23;20078;-69
2022/09/12 08:36:11;;;;;;;9.82;8.82;;;;;;;18.00;100.00;101050.44;6022144;23;20026;-70
2022/09/12 08:38:40;;;;;;;12.25;7.28;;;;;;;18.21;100.00;101053.25;6028951;23;20027;-69
2022/09/12 08:41:26;;;;;;;9.48;8.65;;;;;;;18.50;100.00;101062.41;6022947;23;20027;-71
2022/09/12 08:44:11;;;;;;;9.40;8.23;;;;;;;18.65;100.00;101055.00;6026010;23;20110;-69
2022/09/12 08:46:47;;;;;;;14.77;8.15;;;;;;;18.84;100.00;101066.81;6033372;23;20037;-69
2022/09/12 08:49:26;;;;;;;9.18;8.32;;;;;;;18.64;100.00;101021.44;6025035;23;20035;-70
2022/09/12 08:51:54;;;;;;;10.30;7.50;;;;;;;19.13;100.00;101062.63;6034029;23;20034;-69
2022/09/12 08:54:27;;;;;;;8.45;7.75;;;;;;;18.25;100.00;100887.31;6013007;23;20042;-71
2022/09/12 08:57:01;;;;;;;8.23;7.30;;;;;;;19.47;100.00;101053.66;6032486;23;20089;-72
2022/09/12 08:59:37;;;;;;;8.20;7.40;;;;;;;19.52;100.00;101065.63;6016613;23;20460;-69
2022/09/12 09:02:23;;;;;;;7.93;7.18;;;;;;;18.44;100.00;100858.28;6040166;23;20062;-70
2022/09/12 09:05:28;;;;;;;8.45;7.75;;;;;;;19.95;98.69;101050.50;5992082;23;20011;-69
2022/09/12 09:08:14;;;;;;;14.10;7.00;;;;;;;20.06;95.51;101049.53;6016357;23;20373;-69
2022/09/12 09:11:09;;;;;;;8.50;7.80;;;;;;;20.07;98.37;101046.75;6013780;23;20632;-70
2022/09/12 09:16:58;;;;;;;7.15;6.45;;;;;;;20.63;95.68;101040.09;5908191;24;20100;-71
2022/09/12 09:19:41;;;;;;;7.78;7.15;;;;;;;20.83;94.05;101040.16;6005007;23;20043;-70
2022/09/12 09:22:18;;;;;;;9.10;8.15;;;;;;;20.57;92.89;100997.97;6021516;23;20035;-71
2022/09/12 09:24:52;;;;;;;7.72;7.10;;;;;;;19.91;92.39;100868.78;6021353;23;20015;-71
2022/09/12 09:27:40;;;;;;;7.95;7.15;;;;;;;21.23;92.99;101036.50;6020850;23;20031;-70
2022/09/12 09:30:16;;;;;;;8.57;7.78;;;;;;;21.22;92.79;101041.00;6048912;23;20022;-71
2022/09/12 09:32:46;;;;;;;8.13;7.43;;;;;;;21.18;90.18;101033.41;6039827;23;20082;-71
2022/09/12 09:35:19;;;;;;;9.68;8.77;;;;;;;21.28;89.25;101037.75;6041615;23;20030;-70
2022/09/12 09:37:59;;;;;;;;;;;;;;;21.37;87.86;101036.06;6045116;23;20035;-71
2022/09/12 09:40:36;;;;;;;7.13;6.53;;;;;;;20.46;86.63;100878.09;6062440;23;19912;-71
2022/09/12 09:43:26;;;;;;;7.78;7.28;;;;;;;21.38;88.42;101032.41;6045690;23;20026;-71
2022/09/12 09:45:53;;;;;;;7.97;7.28;;;;;;;21.31;87.56;101020.63;6045675;23;20054;-71
2022/09/12 09:48:28;;;;;;;7.35;6.80;;;;;;;21.32;86.34;100998.28;6019865;23;20022;-70
2022/09/12 09:50:58;;;;;;;8.23;7.53;;;;;;;21.30;85.33;101000.25;6049912;23;20025;-71
2022/09/12 09:53:49;;;;;;;7.65;6.72;;;;;;;21.71;86.60;101011.59;6045116;23;21110;-71
2022/09/12 09:56:35;;;;;;;8.43;7.72;;;;;;;21.81;85.53;101014.22;6046039;23;20022;-72
2022/09/12 09:59:19;;;;;;;7.50;6.90;;;;;;;21.95;83.74;101013.75;6041383;23;20257;-71
2022/09/12 10:01:53;;;;;;;7.20;6.60;;;;;;;21.99;82.39;100995.56;6033491;23;20137;-70
2022/09/12 10:04:23;;;;;;;8.30;7.50;;;;;;;22.36;83.50;100997.41;6049489;23;20030;-70
2022/09/12 10:06:57;;;;;;;7.10;6.60;;;;;;;22.53;81.30;101001.09;6043385;23;20076;-71
2022/09/12 10:09:27;;;;;;;7.32;6.78;;;;;;;21.28;78.36;100802.00;6055565;23;20050;-71
2022/09/12 10:11:55;;;;;;;7.30;6.80;;;;;;;22.74;79.40;101004.34;6047930;23;20403;-69
2022/09/12 10:14:35;;;;;;;7.90;7.30;;;;;;;21.81;76.58;100848.56;6057788;23;20084;-69
2022/09/12 10:17:38;;;;;;;7.13;6.63;;;;;;;23.02;76.08;101007.81;6039796;23;20033;-70
2022/09/12 10:20:29;;;;;;;7.32;6.93;;;;;;;23.05;75.80;101003.97;6039654;23;20034;-71
2022/09/12 10:23:28;;;;;;;7.63;7.07;;;;;;;21.87;75.16;100824.78;6052419;23;20033;-69
2022/09/12 10:25:59;;;;;;;7.63;7.13;;;;;;;23.08;75.74;101017.91;6035991;23;20026;-69
2022/09/12 10:28:38;;;;;;;7.72;7.22;;;;;;;23.16;74.66;100998.41;6027634;23;20034;-70
2022/09/12 10:31:07;;;;;;;8.10;7.22;;;;;;;23.03;74.88;101003.28;6044305;23;20092;-71
2022/09/12 10:33:51;;;;;;;7.20;6.60;;;;;;;23.06;74.43;100965.53;6056983;23;20055;-70
2022/09/12 10:36:19;;;;;;;9.35;8.55;;;;;;;23.22;70.76;100995.09;6033921;23;20015;-70
2022/09/12 10:39:00;;;;;;;7.05;6.55;;;;;;;23.15;72.87;100993.19;6038828;23;20038;-70
2022/09/12 10:41:36;;;;;;;7.32;6.82;;;;;;;23.25;72.92;100988.56;6047589;23;20010;-71
2022/09/12 10:44:13;;;;;;;7.03;6.53;;;;;;;23.35;72.29;100988.50;6054576;23;20314;-71
2022/09/12 10:46:39;;;;;;;6.93;6.53;;;;;;;22.06;72.23;100806.91;6069681;23;20030;-71
2022/09/12 10:49:22;;;;;;;7.00;6.57;;;;;;;23.55;73.09;100981.09;6038181;23;20119;-71
2022/09/12 10:51:50;;;;;;;6.53;6.13;;;;;;;22.46;68.84;100779.72;6061963;23;20018;-72
2022/09/12 10:54:19;;;;;;;7.18;6.53;;;;;;;23.07;68.44;100866.31;6060969;23;20105;-70
2022/09/12 10:56:55;;;;;;;6.32;5.90;;;;;;;23.85;65.23;100974.41;6065039;23;20738;-70
2022/09/12 10:59:37;;;;;;;7.32;6.93;;;;;;;22.64;64.89;100790.38;6057520;23;20033;-71
2022/09/12 11:02:13;;;;;;;7.15;6.53;;;;;;;24.03;66.79;100952.88;6078431;23;20117;-72
2022/09/12 11:04:55;;;;;;;7.18;6.68;;;;;;;24.22;66.20;100966.03;6057409;23;20006;-70
2022/09/12 11:07:37;;;;;;;6.97;6.57;;;;;;;24.29;64.97;100955.47;6045199;23;20678;-69
2022/09/12 11:10:22;;;;;;;6.97;6.57;;;;;;;23.31;63.26;100803.16;6049032;23;20108;-72
2022/09/12 11:13:12;;;;;;;6.90;6.50;;;;;;;24.57;63.81;100948.03;6061256;23;20034;-70
2022/09/12 11:15:53;;;;;;;6.95;6.50;;;;;;;24.56;63.70;100956.25;6038744;23;20018;-70
2022/09/12 11:18:45;;;;;;;8.18;7.68;;;;;;;24.28;64.32;100943.09;6058561;23;20022;-71
2022/09/12 11:21:32;;;;;;;6.68;6.28;;;;;;;24.46;63.78;100946.47;6057822;23;20087;-70
2022/09/12 11:24:31;;;;;;;7.50;7.00;;;;;;;24.22;63.83;100949.94;6054669;23;20087;-70
2022/09/12 11:27:09;;;;;;;6.80;6.38;;;;;;;24.28;61.78;100943.91;6045150;23;20041;-69
2022/09/12 11:29:46;;;;;;;7.22;6.78;;;;;;;24.26;62.57;100939.72;6022052;23;20079;-71
2022/09/12 11:32:44;;;;;;;8.70;8.20;;;;;;;23.88;64.78;100941.94;6014043;23;20031;-70
2022/09/12 11:35:14;;;;;;;8.27;7.68;;;;;;;24.00;61.98;100940.66;6022703;23;20034;-70
2022/09/12 11:38:07;;;;;;;7.03;6.63;;;;;;;24.29;62.25;100928.66;6014054;23;20503;-72
2022/09/12 11:40:57;;;;;;;6.97;6.57;;;;;;;24.50;60.87;100941.66;6015181;23;20042;-70
2022/09/12 11:43:33;;;;;;;6.90;6.40;;;;;;;24.61;61.36;100937.81;5997781;23;20085;-69
2022/09/12 11:46:23;;;;;;;6.88;6.47;;;;;;;24.69;58.38;100953.91;5996413;23;20034;-70